sensor_id;sensor_type;location;lat;lon;timestamp;P1;durP1;ratioP1;P2;durP2;ratioP2
34317;SDS011;20582;52.196;20.952;2022-10-16T00:00:18;24.38;;;15.30;;
34317;SDS011;20582;52.196;20.952;2022-10-16T00:02:44;25.15;;;16.00;;
34317;SDS011;20582;52.196;20.952;2022-10-16T00:05:10;26.23;;;15.63;;
34317;SDS011;20582;52.196;20.952;2022-10-16T00:07:35;25.58;;;14.80;;
34317;SDS011;20582;52.196;20.952;2022-10-16T00:10:02;25.33;;;14.60;;
34317;SDS011;20582;52.196;20.952;2022-10-16T00:12:28;22.60;;;14.60;;
34317;SDS011;20582;52.196;20.952;2022-10-16T00:14:54;24.92;;;15.27;;
34317;SDS011;20582;52.196;20.952;2022-10-16T00:17:20;25.75;;;15.32;;
34317;SDS011;20582;52.196;20.952;2022-10-16T00:19:45;26.83;;;15.20;;
34317;SDS011;20582;52.196;20.952;2022-10-16T00:22:11;30.25;;;16.88;;
34317;SDS011;20582;52.196;20.952;2022-10-16T00:24:37;36.25;;;20.33;;
34317;SDS011;20582;52.196;20.952;2022-10-16T00:27:03;32.83;;;18.10;;
34317;SDS011;20582;52.196;20.952;2022-10-16T00:29:29;32.03;;;16.63;;
34317;SDS011;20582;52.196;20.952;2022-10-16T00:31:55;30.42;;;17.33;;
34317;SDS011;20582;52.196;20.952;2022-10-16T00:34:21;32.78;;;17.50;;
34317;SDS011;20582;52.196;20.952;2022-10-16T00:36:47;26.38;;;16.88;;
34317;SDS011;20582;52.196;20.952;2022-10-16T00:39:13;28.73;;;17.95;;
34317;SDS011;20582;52.196;20.952;2022-10-16T00:41:39;33.85;;;18.20;;
34317;SDS011;20582;52.196;20.952;2022-10-16T00:44:42;29.38;;;17.88;;
34317;SDS011;20582;52.196;20.952;2022-10-16T00:46:51;30.13;;;17.30;;
34317;SDS011;20582;52.196;20.952;2022-10-16T00:49:18;26.98;;;17.13;;
34317;SDS011;20582;52.196;20.952;2022-10-16T00:51:49;28.88;;;17.48;;
34317;SDS011;20582;52.196;20.952;2022-10-16T00:54:22;27.10;;;17.63;;
34317;SDS011;20582;52.196;20.952;2022-10-16T00:56:49;29.83;;;18.13;;
34317;SDS011;20582;52.196;20.952;2022-10-16T00:59:25;29.65;;;17.77;;
34317;SDS011;20582;52.196;20.952;2022-10-16T01:01:52;28.77;;;18.70;;
34317;SDS011;20582;52.196;20.952;2022-10-16T01:04:18;26.23;;;17.15;;
34317;SDS011;20582;52.196;20.952;2022-10-16T01:12:50;28.52;;;17.58;;
34317;SDS011;20582;52.196;20.952;2022-10-16T01:14:58;29.92;;;18.98;;
34317;SDS011;20582;52.196;20.952;2022-10-16T01:22:39;29.92;;;18.48;;
34317;SDS011;20582;52.196;20.952;2022-10-16T01:25:11;33.17;;;18.70;;
34317;SDS011;20582;52.196;20.952;2022-10-16T01:27:38;29.70;;;18.23;;
34317;SDS011;20582;52.196;20.952;2022-10-16T01:30:18;32.13;;;18.25;;
34317;SDS011;20582;52.196;20.952;2022-10-16T01:32:50;30.63;;;18.17;;
34317;SDS011;20582;52.196;20.952;2022-10-16T01:35:32;36.65;;;21.70;;
34317;SDS011;20582;52.196;20.952;2022-10-16T01:38:19;45.05;;;23.23;;
34317;SDS011;20582;52.196;20.952;2022-10-16T01:40:51;28.25;;;18.08;;
34317;SDS011;20582;52.196;20.952;2022-10-16T01:43:22;27.35;;;17.70;;
34317;SDS011;20582;52.196;20.952;2022-10-16T01:45:50;28.75;;;17.75;;
34317;SDS011;20582;52.196;20.952;2022-10-16T01:48:18;34.50;;;19.15;;
34317;SDS011;20582;52.196;20.952;2022-10-16T01:50:56;33.83;;;19.73;;
34317;SDS011;20582;52.196;20.952;2022-10-16T01:53:22;33.40;;;19.88;;
34317;SDS011;20582;52.196;20.952;2022-10-16T01:55:50;32.45;;;19.88;;
34317;SDS011;20582;52.196;20.952;2022-10-16T01:58:18;29.65;;;18.45;;
34317;SDS011;20582;52.196;20.952;2022-10-16T02:00:44;32.10;;;19.75;;
34317;SDS011;20582;52.196;20.952;2022-10-16T02:03:11;31.77;;;19.27;;
34317;SDS011;20582;52.196;20.952;2022-10-16T02:05:40;33.13;;;19.55;;
34317;SDS011;20582;52.196;20.952;2022-10-16T02:08:07;27.92;;;19.00;;
34317;SDS011;20582;52.196;20.952;2022-10-16T02:10:34;27.80;;;18.52;;
34317;SDS011;20582;52.196;20.952;2022-10-16T02:13:03;34.95;;;19.40;;
34317;SDS011;20582;52.196;20.952;2022-10-16T02:15:30;30.20;;;18.98;;
34317;SDS011;20582;52.196;20.952;2022-10-16T02:17:56;44.22;;;26.40;;
34317;SDS011;20582;52.196;20.952;2022-10-16T02:20:25;44.63;;;24.00;;
34317;SDS011;20582;52.196;20.952;2022-10-16T02:22:51;38.22;;;21.02;;
34317;SDS011;20582;52.196;20.952;2022-10-16T02:25:50;33.85;;;19.50;;
34317;SDS011;20582;52.196;20.952;2022-10-16T02:28:16;32.38;;;19.90;;
34317;SDS011;20582;52.196;20.952;2022-10-16T02:30:45;30.95;;;19.92;;
34317;SDS011;20582;52.196;20.952;2022-10-16T02:33:13;33.63;;;20.42;;
34317;SDS011;20582;52.196;20.952;2022-10-16T02:35:40;30.95;;;19.63;;
34317;SDS011;20582;52.196;20.952;2022-10-16T02:38:07;32.70;;;20.20;;
34317;SDS011;20582;52.196;20.952;2022-10-16T02:40:33;30.67;;;18.52;;
34317;SDS011;20582;52.196;20.952;2022-10-16T02:43:00;31.27;;;20.50;;
34317;SDS011;20582;52.196;20.952;2022-10-16T02:45:26;30.60;;;19.98;;
34317;SDS011;20582;52.196;20.952;2022-10-16T02:47:52;31.10;;;19.45;;
34317;SDS011;20582;52.196;20.952;2022-10-16T02:50:18;31.08;;;20.08;;
34317;SDS011;20582;52.196;20.952;2022-10-16T02:52:44;33.25;;;20.42;;
34317;SDS011;20582;52.196;20.952;2022-10-16T02:55:10;29.17;;;18.85;;
34317;SDS011;20582;52.196;20.952;2022-10-16T02:57:36;34.05;;;20.45;;
34317;SDS011;20582;52.196;20.952;2022-10-16T03:00:03;31.50;;;19.48;;
34317;SDS011;20582;52.196;20.952;2022-10-16T03:02:29;28.45;;;19.30;;
34317;SDS011;20582;52.196;20.952;2022-10-16T03:04:55;30.83;;;20.83;;
34317;SDS011;20582;52.196;20.952;2022-10-16T03:07:21;36.47;;;22.92;;
34317;SDS011;20582;52.196;20.952;2022-10-16T03:09:47;37.13;;;21.98;;
34317;SDS011;20582;52.196;20.952;2022-10-16T03:12:13;31.83;;;19.67;;
34317;SDS011;20582;52.196;20.952;2022-10-16T03:14:39;34.13;;;20.17;;
34317;SDS011;20582;52.196;20.952;2022-10-16T03:17:05;37.28;;;21.02;;
34317;SDS011;20582;52.196;20.952;2022-10-16T03:19:31;32.72;;;19.15;;
34317;SDS011;20582;52.196;20.952;2022-10-16T03:21:57;32.80;;;19.45;;
34317;SDS011;20582;52.196;20.952;2022-10-16T03:24:23;32.53;;;19.70;;
34317;SDS011;20582;52.196;20.952;2022-10-16T03:26:49;29.98;;;19.63;;
34317;SDS011;20582;52.196;20.952;2022-10-16T03:29:15;30.52;;;19.50;;
34317;SDS011;20582;52.196;20.952;2022-10-16T03:31:41;28.95;;;18.83;;
34317;SDS011;20582;52.196;20.952;2022-10-16T03:34:07;30.55;;;19.13;;
34317;SDS011;20582;52.196;20.952;2022-10-16T03:36:33;27.02;;;18.95;;
34317;SDS011;20582;52.196;20.952;2022-10-16T03:38:59;28.90;;;18.45;;
34317;SDS011;20582;52.196;20.952;2022-10-16T03:41:25;27.38;;;18.35;;
34317;SDS011;20582;52.196;20.952;2022-10-16T03:43:51;30.30;;;18.30;;
34317;SDS011;20582;52.196;20.952;2022-10-16T03:46:17;35.53;;;20.42;;
34317;SDS011;20582;52.196;20.952;2022-10-16T03:48:43;33.42;;;21.23;;
34317;SDS011;20582;52.196;20.952;2022-10-16T03:51:09;37.45;;;21.92;;
34317;SDS011;20582;52.196;20.952;2022-10-16T03:53:35;34.80;;;20.02;;
34317;SDS011;20582;52.196;20.952;2022-10-16T03:56:01;36.33;;;19.95;;
34317;SDS011;20582;52.196;20.952;2022-10-16T03:58:27;33.40;;;19.90;;
34317;SDS011;20582;52.196;20.952;2022-10-16T04:00:53;30.80;;;19.42;;
34317;SDS011;20582;52.196;20.952;2022-10-16T04:03:19;29.95;;;19.73;;
34317;SDS011;20582;52.196;20.952;2022-10-16T04:05:46;28.73;;;18.63;;
34317;SDS011;20582;52.196;20.952;2022-10-16T04:08:12;32.83;;;19.33;;
34317;SDS011;20582;52.196;20.952;2022-10-16T04:10:38;30.30;;;20.02;;
34317;SDS011;20582;52.196;20.952;2022-10-16T04:13:04;30.38;;;19.35;;
34317;SDS011;20582;52.196;20.952;2022-10-16T04:15:30;29.83;;;19.88;;
34317;SDS011;20582;52.196;20.952;2022-10-16T04:17:56;33.10;;;19.25;;
34317;SDS011;20582;52.196;20.952;2022-10-16T04:20:22;30.85;;;19.70;;
34317;SDS011;20582;52.196;20.952;2022-10-16T04:22:48;34.72;;;20.00;;
34317;SDS011;20582;52.196;20.952;2022-10-16T04:25:14;36.58;;;20.90;;
34317;SDS011;20582;52.196;20.952;2022-10-16T04:27:40;37.60;;;22.02;;
34317;SDS011;20582;52.196;20.952;2022-10-16T04:30:06;28.75;;;18.80;;
34317;SDS011;20582;52.196;20.952;2022-10-16T04:32:32;31.88;;;19.27;;
34317;SDS011;20582;52.196;20.952;2022-10-16T04:34:58;28.42;;;19.10;;
34317;SDS011;20582;52.196;20.952;2022-10-16T04:37:25;32.65;;;18.92;;
34317;SDS011;20582;52.196;20.952;2022-10-16T04:39:51;29.30;;;18.60;;
34317;SDS011;20582;52.196;20.952;2022-10-16T04:42:17;28.38;;;18.20;;
34317;SDS011;20582;52.196;20.952;2022-10-16T04:44:43;31.73;;;19.25;;
34317;SDS011;20582;52.196;20.952;2022-10-16T04:47:09;29.73;;;18.73;;
34317;SDS011;20582;52.196;20.952;2022-10-16T04:49:35;31.95;;;19.27;;
34317;SDS011;20582;52.196;20.952;2022-10-16T04:52:01;29.02;;;18.92;;
34317;SDS011;20582;52.196;20.952;2022-10-16T04:54:27;31.58;;;18.15;;
34317;SDS011;20582;52.196;20.952;2022-10-16T04:56:53;35.22;;;20.15;;
34317;SDS011;20582;52.196;20.952;2022-10-16T04:59:19;31.20;;;19.95;;
34317;SDS011;20582;52.196;20.952;2022-10-16T05:01:45;31.15;;;19.88;;
34317;SDS011;20582;52.196;20.952;2022-10-16T05:04:11;28.67;;;19.25;;
34317;SDS011;20582;52.196;20.952;2022-10-16T05:06:38;34.15;;;20.52;;
34317;SDS011;20582;52.196;20.952;2022-10-16T05:09:05;32.67;;;20.45;;
34317;SDS011;20582;52.196;20.952;2022-10-16T05:11:31;33.40;;;20.17;;
34317;SDS011;20582;52.196;20.952;2022-10-16T05:13:57;30.58;;;20.25;;
34317;SDS011;20582;52.196;20.952;2022-10-16T05:16:23;31.88;;;19.77;;
34317;SDS011;20582;52.196;20.952;2022-10-16T05:18:51;31.20;;;19.60;;
34317;SDS011;20582;52.196;20.952;2022-10-16T05:21:17;30.38;;;19.48;;
34317;SDS011;20582;52.196;20.952;2022-10-16T05:23:43;32.30;;;20.75;;
34317;SDS011;20582;52.196;20.952;2022-10-16T05:26:09;32.90;;;20.00;;
34317;SDS011;20582;52.196;20.952;2022-10-16T05:28:35;32.90;;;20.65;;
34317;SDS011;20582;52.196;20.952;2022-10-16T05:31:05;34.70;;;21.08;;
34317;SDS011;20582;52.196;20.952;2022-10-16T05:33:31;30.85;;;20.20;;
34317;SDS011;20582;52.196;20.952;2022-10-16T05:36:00;33.58;;;19.80;;
34317;SDS011;20582;52.196;20.952;2022-10-16T05:38:27;34.35;;;20.40;;
34317;SDS011;20582;52.196;20.952;2022-10-16T05:40:53;31.13;;;19.98;;
34317;SDS011;20582;52.196;20.952;2022-10-16T05:43:19;32.85;;;21.00;;
34317;SDS011;20582;52.196;20.952;2022-10-16T05:46:03;33.17;;;20.77;;
34317;SDS011;20582;52.196;20.952;2022-10-16T05:48:29;34.85;;;22.40;;
34317;SDS011;20582;52.196;20.952;2022-10-16T05:51:03;38.28;;;21.60;;
34317;SDS011;20582;52.196;20.952;2022-10-16T05:53:29;32.38;;;20.65;;
34317;SDS011;20582;52.196;20.952;2022-10-16T05:55:56;33.85;;;21.80;;
34317;SDS011;20582;52.196;20.952;2022-10-16T05:58:22;32.03;;;20.77;;
34317;SDS011;20582;52.196;20.952;2022-10-16T06:00:59;30.60;;;20.80;;
34317;SDS011;20582;52.196;20.952;2022-10-16T06:03:25;31.80;;;21.00;;
34317;SDS011;20582;52.196;20.952;2022-10-16T06:05:51;35.83;;;20.88;;
34317;SDS011;20582;52.196;20.952;2022-10-16T06:08:18;32.83;;;20.20;;
34317;SDS011;20582;52.196;20.952;2022-10-16T06:10:44;32.80;;;21.25;;
34317;SDS011;20582;52.196;20.952;2022-10-16T06:13:11;36.53;;;21.38;;
34317;SDS011;20582;52.196;20.952;2022-10-16T06:15:37;32.33;;;21.17;;
34317;SDS011;20582;52.196;20.952;2022-10-16T06:18:04;36.35;;;21.98;;
34317;SDS011;20582;52.196;20.952;2022-10-16T06:20:30;42.88;;;24.85;;
34317;SDS011;20582;52.196;20.952;2022-10-16T06:22:56;33.20;;;21.52;;
34317;SDS011;20582;52.196;20.952;2022-10-16T06:25:22;31.70;;;20.60;;
34317;SDS011;20582;52.196;20.952;2022-10-16T06:27:48;31.17;;;20.08;;
34317;SDS011;20582;52.196;20.952;2022-10-16T06:30:14;33.00;;;20.35;;
34317;SDS011;20582;52.196;20.952;2022-10-16T06:32:40;30.92;;;19.42;;
34317;SDS011;20582;52.196;20.952;2022-10-16T06:35:06;34.50;;;20.20;;
34317;SDS011;20582;52.196;20.952;2022-10-16T06:37:32;31.25;;;19.40;;
34317;SDS011;20582;52.196;20.952;2022-10-16T06:39:58;30.98;;;18.75;;
34317;SDS011;20582;52.196;20.952;2022-10-16T06:42:25;29.75;;;19.17;;
34317;SDS011;20582;52.196;20.952;2022-10-16T06:44:51;32.97;;;20.55;;
34317;SDS011;20582;52.196;20.952;2022-10-16T06:47:17;30.52;;;20.00;;
34317;SDS011;20582;52.196;20.952;2022-10-16T06:49:43;27.80;;;18.48;;
34317;SDS011;20582;52.196;20.952;2022-10-16T06:52:09;26.80;;;17.88;;
34317;SDS011;20582;52.196;20.952;2022-10-16T06:54:35;30.77;;;18.40;;
34317;SDS011;20582;52.196;20.952;2022-10-16T06:57:01;29.42;;;18.40;;
34317;SDS011;20582;52.196;20.952;2022-10-16T06:59:27;30.02;;;18.35;;
34317;SDS011;20582;52.196;20.952;2022-10-16T07:01:53;27.75;;;17.85;;
34317;SDS011;20582;52.196;20.952;2022-10-16T07:04:19;26.73;;;18.15;;
34317;SDS011;20582;52.196;20.952;2022-10-16T07:06:45;30.70;;;19.27;;
34317;SDS011;20582;52.196;20.952;2022-10-16T07:09:11;26.45;;;17.15;;
34317;SDS011;20582;52.196;20.952;2022-10-16T07:11:38;29.08;;;17.20;;
34317;SDS011;20582;52.196;20.952;2022-10-16T07:14:04;30.08;;;17.52;;
34317;SDS011;20582;52.196;20.952;2022-10-16T07:16:31;30.13;;;17.92;;
34317;SDS011;20582;52.196;20.952;2022-10-16T07:18:58;27.60;;;17.33;;
34317;SDS011;20582;52.196;20.952;2022-10-16T07:21:25;28.38;;;17.20;;
34317;SDS011;20582;52.196;20.952;2022-10-16T07:23:52;30.73;;;17.90;;
34317;SDS011;20582;52.196;20.952;2022-10-16T07:26:19;27.30;;;17.55;;
34317;SDS011;20582;52.196;20.952;2022-10-16T07:28:46;26.85;;;17.75;;
34317;SDS011;20582;52.196;20.952;2022-10-16T07:31:12;24.10;;;17.10;;
34317;SDS011;20582;52.196;20.952;2022-10-16T07:33:39;28.73;;;17.08;;
34317;SDS011;20582;52.196;20.952;2022-10-16T07:36:07;27.70;;;17.20;;
34317;SDS011;20582;52.196;20.952;2022-10-16T07:38:33;27.95;;;17.13;;
34317;SDS011;20582;52.196;20.952;2022-10-16T07:41:00;25.23;;;16.42;;
34317;SDS011;20582;52.196;20.952;2022-10-16T07:43:26;32.40;;;17.80;;
34317;SDS011;20582;52.196;20.952;2022-10-16T07:45:52;24.40;;;17.33;;
34317;SDS011;20582;52.196;20.952;2022-10-16T07:48:18;28.83;;;17.80;;
34317;SDS011;20582;52.196;20.952;2022-10-16T07:50:44;25.98;;;16.33;;
34317;SDS011;20582;52.196;20.952;2022-10-16T07:53:11;26.40;;;17.13;;
34317;SDS011;20582;52.196;20.952;2022-10-16T07:55:37;25.83;;;15.50;;
34317;SDS011;20582;52.196;20.952;2022-10-16T07:58:03;24.75;;;15.15;;
34317;SDS011;20582;52.196;20.952;2022-10-16T08:00:29;21.98;;;14.50;;
34317;SDS011;20582;52.196;20.952;2022-10-16T08:02:56;21.00;;;13.52;;
34317;SDS011;20582;52.196;20.952;2022-10-16T08:05:25;22.60;;;13.45;;
34317;SDS011;20582;52.196;20.952;2022-10-16T08:07:51;18.63;;;13.02;;
34317;SDS011;20582;52.196;20.952;2022-10-16T08:10:18;21.73;;;13.00;;
34317;SDS011;20582;52.196;20.952;2022-10-16T08:12:44;18.73;;;12.88;;
34317;SDS011;20582;52.196;20.952;2022-10-16T08:15:10;19.50;;;12.52;;
34317;SDS011;20582;52.196;20.952;2022-10-16T08:17:36;16.52;;;11.65;;
34317;SDS011;20582;52.196;20.952;2022-10-16T08:20:03;16.35;;;11.93;;
34317;SDS011;20582;52.196;20.952;2022-10-16T08:22:29;15.68;;;11.73;;
34317;SDS011;20582;52.196;20.952;2022-10-16T08:24:55;20.23;;;12.57;;
34317;SDS011;20582;52.196;20.952;2022-10-16T08:27:21;20.40;;;11.55;;
34317;SDS011;20582;52.196;20.952;2022-10-16T08:29:48;18.52;;;12.02;;
34317;SDS011;20582;52.196;20.952;2022-10-16T08:32:14;17.17;;;11.63;;
34317;SDS011;20582;52.196;20.952;2022-10-16T08:34:40;19.15;;;12.85;;
34317;SDS011;20582;52.196;20.952;2022-10-16T08:37:06;17.95;;;12.15;;
34317;SDS011;20582;52.196;20.952;2022-10-16T08:39:36;18.77;;;12.75;;
34317;SDS011;20582;52.196;20.952;2022-10-16T08:49:26;19.58;;;12.90;;
34317;SDS011;20582;52.196;20.952;2022-10-16T08:51:53;20.88;;;12.68;;
34317;SDS011;20582;52.196;20.952;2022-10-16T08:56:45;18.60;;;12.48;;
34317;SDS011;20582;52.196;20.952;2022-10-16T08:59:11;19.67;;;12.30;;
34317;SDS011;20582;52.196;20.952;2022-10-16T09:01:38;17.63;;;11.40;;
34317;SDS011;20582;52.196;20.952;2022-10-16T09:17:13;19.83;;;12.98;;
34317;SDS011;20582;52.196;20.952;2022-10-16T09:19:34;20.35;;;12.18;;
34317;SDS011;20582;52.196;20.952;2022-10-16T09:22:04;22.27;;;12.43;;
34317;SDS011;20582;52.196;20.952;2022-10-16T09:24:35;16.92;;;12.20;;
34317;SDS011;20582;52.196;20.952;2022-10-16T09:27:02;18.27;;;11.55;;
34317;SDS011;20582;52.196;20.952;2022-10-16T09:29:28;18.25;;;12.35;;
34317;SDS011;20582;52.196;20.952;2022-10-16T09:31:54;16.58;;;11.80;;
34317;SDS011;20582;52.196;20.952;2022-10-16T09:34:29;16.77;;;10.77;;
34317;SDS011;20582;52.196;20.952;2022-10-16T09:36:56;17.10;;;11.43;;
34317;SDS011;20582;52.196;20.952;2022-10-16T09:39:23;17.70;;;11.90;;
34317;SDS011;20582;52.196;20.952;2022-10-16T09:41:49;18.65;;;12.15;;
34317;SDS011;20582;52.196;20.952;2022-10-16T09:46:44;17.27;;;12.05;;
34317;SDS011;20582;52.196;20.952;2022-10-16T09:51:46;17.33;;;12.27;;
34317;SDS011;20582;52.196;20.952;2022-10-16T09:56:38;19.13;;;12.02;;
34317;SDS011;20582;52.196;20.952;2022-10-16T09:59:12;18.63;;;11.40;;
34317;SDS011;20582;52.196;20.952;2022-10-16T10:04:07;20.15;;;11.65;;
34317;SDS011;20582;52.196;20.952;2022-10-16T10:06:34;20.60;;;12.20;;
34317;SDS011;20582;52.196;20.952;2022-10-16T10:09:13;16.67;;;11.80;;
34317;SDS011;20582;52.196;20.952;2022-10-16T10:11:42;16.50;;;10.82;;
34317;SDS011;20582;52.196;20.952;2022-10-16T10:16:48;17.70;;;11.75;;
34317;SDS011;20582;52.196;20.952;2022-10-16T10:19:15;17.25;;;11.25;;
34317;SDS011;20582;52.196;20.952;2022-10-16T10:21:41;18.67;;;11.20;;
34317;SDS011;20582;52.196;20.952;2022-10-16T10:24:14;15.65;;;11.43;;
34317;SDS011;20582;52.196;20.952;2022-10-16T10:26:41;19.15;;;11.70;;
34317;SDS011;20582;52.196;20.952;2022-10-16T10:37:23;18.95;;;11.40;;
34317;SDS011;20582;52.196;20.952;2022-10-16T10:42:44;16.35;;;11.65;;
34317;SDS011;20582;52.196;20.952;2022-10-16T11:00:45;17.02;;;11.57;;
34317;SDS011;20582;52.196;20.952;2022-10-16T11:08:07;16.73;;;11.18;;
34317;SDS011;20582;52.196;20.952;2022-10-16T11:10:52;18.93;;;11.97;;
34317;SDS011;20582;52.196;20.952;2022-10-16T11:13:21;17.52;;;11.70;;
34317;SDS011;20582;52.196;20.952;2022-10-16T11:15:50;15.73;;;11.30;;
34317;SDS011;20582;52.196;20.952;2022-10-16T11:18:21;16.85;;;11.38;;
34317;SDS011;20582;52.196;20.952;2022-10-16T11:23:25;16.67;;;11.48;;
34317;SDS011;20582;52.196;20.952;2022-10-16T11:25:51;15.98;;;10.93;;
34317;SDS011;20582;52.196;20.952;2022-10-16T11:28:20;16.90;;;11.25;;
34317;SDS011;20582;52.196;20.952;2022-10-16T11:33:27;14.85;;;10.10;;
34317;SDS011;20582;52.196;20.952;2022-10-16T11:36:00;16.88;;;10.35;;
34317;SDS011;20582;52.196;20.952;2022-10-16T11:38:30;17.48;;;10.98;;
34317;SDS011;20582;52.196;20.952;2022-10-16T11:40:58;16.42;;;11.00;;
34317;SDS011;20582;52.196;20.952;2022-10-16T11:43:26;16.67;;;10.50;;
34317;SDS011;20582;52.196;20.952;2022-10-16T11:45:55;17.00;;;10.70;;
34317;SDS011;20582;52.196;20.952;2022-10-16T11:50:50;15.10;;;10.00;;
34317;SDS011;20582;52.196;20.952;2022-10-16T11:55:55;15.95;;;10.60;;
34317;SDS011;20582;52.196;20.952;2022-10-16T11:58:26;15.52;;;10.75;;
34317;SDS011;20582;52.196;20.952;2022-10-16T12:03:56;14.98;;;10.30;;
34317;SDS011;20582;52.196;20.952;2022-10-16T12:08:48;14.73;;;10.73;;
34317;SDS011;20582;52.196;20.952;2022-10-16T12:11:30;14.90;;;10.05;;
34317;SDS011;20582;52.196;20.952;2022-10-16T12:14:07;15.10;;;10.20;;
34317;SDS011;20582;52.196;20.952;2022-10-16T12:16:56;17.02;;;10.32;;
34317;SDS011;20582;52.196;20.952;2022-10-16T12:19:24;14.65;;;9.88;;
34317;SDS011;20582;52.196;20.952;2022-10-16T12:21:52;17.38;;;10.25;;
34317;SDS011;20582;52.196;20.952;2022-10-16T12:24:28;17.90;;;10.48;;
34317;SDS011;20582;52.196;20.952;2022-10-16T12:26:55;15.80;;;9.43;;
34317;SDS011;20582;52.196;20.952;2022-10-16T12:31:56;16.67;;;10.18;;
34317;SDS011;20582;52.196;20.952;2022-10-16T12:36:51;18.02;;;10.02;;
34317;SDS011;20582;52.196;20.952;2022-10-16T12:39:20;15.32;;;10.77;;
34317;SDS011;20582;52.196;20.952;2022-10-16T12:41:46;17.13;;;10.57;;
34317;SDS011;20582;52.196;20.952;2022-10-16T12:44:25;17.33;;;10.98;;
34317;SDS011;20582;52.196;20.952;2022-10-16T12:46:51;17.20;;;11.30;;
34317;SDS011;20582;52.196;20.952;2022-10-16T12:49:22;20.48;;;10.88;;
34317;SDS011;20582;52.196;20.952;2022-10-16T12:51:49;15.50;;;10.65;;
34317;SDS011;20582;52.196;20.952;2022-10-16T13:14:55;17.35;;;11.60;;
34317;SDS011;20582;52.196;20.952;2022-10-16T13:25:26;20.08;;;11.20;;
34317;SDS011;20582;52.196;20.952;2022-10-16T13:28:01;19.70;;;11.07;;
34317;SDS011;20582;52.196;20.952;2022-10-16T13:30:31;19.17;;;10.45;;
34317;SDS011;20582;52.196;20.952;2022-10-16T13:33:01;17.08;;;9.95;;
34317;SDS011;20582;52.196;20.952;2022-10-16T13:35:31;15.95;;;10.07;;
34317;SDS011;20582;52.196;20.952;2022-10-16T13:38:14;20.42;;;9.40;;
34317;SDS011;20582;52.196;20.952;2022-10-16T13:40:51;15.88;;;9.43;;
34317;SDS011;20582;52.196;20.952;2022-10-16T13:43:18;14.57;;;9.60;;
34317;SDS011;20582;52.196;20.952;2022-10-16T13:45:54;14.15;;;9.07;;
34317;SDS011;20582;52.196;20.952;2022-10-16T13:48:21;14.35;;;9.27;;
34317;SDS011;20582;52.196;20.952;2022-10-16T13:50:57;14.75;;;9.88;;
34317;SDS011;20582;52.196;20.952;2022-10-16T13:53:23;13.95;;;8.75;;
34317;SDS011;20582;52.196;20.952;2022-10-16T13:55:49;15.27;;;9.50;;
34317;SDS011;20582;52.196;20.952;2022-10-16T13:58:15;17.42;;;9.32;;
34317;SDS011;20582;52.196;20.952;2022-10-16T14:00:52;15.95;;;10.05;;
34317;SDS011;20582;52.196;20.952;2022-10-16T14:03:19;16.90;;;10.23;;
34317;SDS011;20582;52.196;20.952;2022-10-16T14:05:47;13.48;;;9.77;;
34317;SDS011;20582;52.196;20.952;2022-10-16T14:08:13;15.65;;;10.25;;
34317;SDS011;20582;52.196;20.952;2022-10-16T14:10:39;18.55;;;10.75;;
34317;SDS011;20582;52.196;20.952;2022-10-16T14:13:06;13.32;;;9.73;;
34317;SDS011;20582;52.196;20.952;2022-10-16T14:15:33;16.77;;;10.32;;
34317;SDS011;20582;52.196;20.952;2022-10-16T14:18:00;16.25;;;10.13;;
34317;SDS011;20582;52.196;20.952;2022-10-16T14:20:27;16.08;;;10.40;;
34317;SDS011;20582;52.196;20.952;2022-10-16T14:25:27;16.13;;;11.02;;
34317;SDS011;20582;52.196;20.952;2022-10-16T14:30:25;19.02;;;10.00;;
34317;SDS011;20582;52.196;20.952;2022-10-16T14:33:05;17.48;;;11.13;;
34317;SDS011;20582;52.196;20.952;2022-10-16T14:37:58;16.73;;;11.23;;
34317;SDS011;20582;52.196;20.952;2022-10-16T14:40:25;14.70;;;10.30;;
34317;SDS011;20582;52.196;20.952;2022-10-16T14:42:52;17.08;;;10.63;;
34317;SDS011;20582;52.196;20.952;2022-10-16T14:45:19;17.27;;;11.20;;
34317;SDS011;20582;52.196;20.952;2022-10-16T14:47:49;18.27;;;11.70;;
34317;SDS011;20582;52.196;20.952;2022-10-16T14:50:15;17.70;;;11.43;;
34317;SDS011;20582;52.196;20.952;2022-10-16T14:52:41;15.55;;;11.10;;
34317;SDS011;20582;52.196;20.952;2022-10-16T14:55:09;19.58;;;10.90;;
34317;SDS011;20582;52.196;20.952;2022-10-16T14:57:35;16.65;;;10.77;;
34317;SDS011;20582;52.196;20.952;2022-10-16T15:00:03;16.70;;;11.07;;
34317;SDS011;20582;52.196;20.952;2022-10-16T15:02:30;19.35;;;11.32;;
34317;SDS011;20582;52.196;20.952;2022-10-16T15:04:57;18.48;;;11.73;;
34317;SDS011;20582;52.196;20.952;2022-10-16T15:07:23;20.23;;;12.05;;
34317;SDS011;20582;52.196;20.952;2022-10-16T15:09:49;18.80;;;11.18;;
34317;SDS011;20582;52.196;20.952;2022-10-16T15:12:16;18.70;;;11.63;;
34317;SDS011;20582;52.196;20.952;2022-10-16T15:14:42;17.98;;;11.95;;
34317;SDS011;20582;52.196;20.952;2022-10-16T15:17:09;18.60;;;11.48;;
34317;SDS011;20582;52.196;20.952;2022-10-16T15:19:35;17.73;;;12.40;;
34317;SDS011;20582;52.196;20.952;2022-10-16T15:22:01;19.23;;;12.38;;
34317;SDS011;20582;52.196;20.952;2022-10-16T15:24:27;18.33;;;11.10;;
34317;SDS011;20582;52.196;20.952;2022-10-16T15:26:53;22.45;;;13.13;;
34317;SDS011;20582;52.196;20.952;2022-10-16T15:29:19;18.38;;;12.65;;
34317;SDS011;20582;52.196;20.952;2022-10-16T15:31:45;17.42;;;11.75;;
34317;SDS011;20582;52.196;20.952;2022-10-16T15:34:12;20.92;;;13.10;;
34317;SDS011;20582;52.196;20.952;2022-10-16T15:36:38;18.27;;;11.77;;
34317;SDS011;20582;52.196;20.952;2022-10-16T15:39:20;21.42;;;13.40;;
34317;SDS011;20582;52.196;20.952;2022-10-16T15:41:47;20.13;;;12.20;;
34317;SDS011;20582;52.196;20.952;2022-10-16T15:44:18;18.80;;;12.25;;
34317;SDS011;20582;52.196;20.952;2022-10-16T15:46:44;16.80;;;11.90;;
34317;SDS011;20582;52.196;20.952;2022-10-16T15:49:10;17.88;;;12.55;;
34317;SDS011;20582;52.196;20.952;2022-10-16T15:51:38;17.75;;;12.52;;
34317;SDS011;20582;52.196;20.952;2022-10-16T15:54:04;16.90;;;12.25;;
34317;SDS011;20582;52.196;20.952;2022-10-16T15:56:30;18.77;;;11.93;;
34317;SDS011;20582;52.196;20.952;2022-10-16T15:58:58;21.00;;;13.18;;
34317;SDS011;20582;52.196;20.952;2022-10-16T16:01:24;21.48;;;12.52;;
34317;SDS011;20582;52.196;20.952;2022-10-16T16:03:53;19.40;;;13.27;;
34317;SDS011;20582;52.196;20.952;2022-10-16T16:06:19;20.42;;;13.02;;
34317;SDS011;20582;52.196;20.952;2022-10-16T16:08:45;21.50;;;13.52;;
34317;SDS011;20582;52.196;20.952;2022-10-16T16:11:13;19.88;;;13.43;;
34317;SDS011;20582;52.196;20.952;2022-10-16T16:13:40;21.52;;;13.13;;
34317;SDS011;20582;52.196;20.952;2022-10-16T16:16:10;23.05;;;13.98;;
34317;SDS011;20582;52.196;20.952;2022-10-16T16:18:36;26.23;;;16.13;;
34317;SDS011;20582;52.196;20.952;2022-10-16T16:21:03;25.77;;;16.83;;
34317;SDS011;20582;52.196;20.952;2022-10-16T16:23:29;30.90;;;18.48;;
34317;SDS011;20582;52.196;20.952;2022-10-16T16:26:02;31.05;;;20.38;;